sensor_id;sensor_type;location;lat;lon;timestamp;pressure;altitude;pressure_sealevel;temperature;humidity
68179;BME280;54998;42.656;23.382;2022-08-05T00:00:57;95006.00;;;18.81;52.87
68179;BME280;54998;42.656;23.382;2022-08-05T00:03:23;94999.59;;;18.84;52.85
68179;BME280;54998;42.656;23.382;2022-08-05T00:05:48;94999.81;;;18.82;52.70
68179;BME280;54998;42.656;23.382;2022-08-05T00:08:13;95005.19;;;18.81;52.53
68179;BME280;54998;42.656;23.382;2022-08-05T00:10:39;94991.19;;;18.82;52.77
68179;BME280;54998;42.656;23.382;2022-08-05T00:13:04;94994.50;;;18.76;52.88
68179;BME280;54998;42.656;23.382;2022-08-05T00:15:30;94992.22;;;18.66;53.61
68179;BME280;54998;42.656;23.382;2022-08-05T00:17:55;94994.34;;;18.56;53.68
68179;BME280;54998;42.656;23.382;2022-08-05T00:20:21;94985.50;;;18.50;53.74
68179;BME280;54998;42.656;23.382;2022-08-05T00:22:46;94986.97;;;18.38;54.16
68179;BME280;54998;42.656;23.382;2022-08-05T00:25:14;94975.72;;;18.31;54.39
68179;BME280;54998;42.656;23.382;2022-08-05T00:27:40;94983.88;;;18.27;55.27
68179;BME280;54998;42.656;23.382;2022-08-05T00:30:06;94988.88;;;18.29;54.59
68179;BME280;54998;42.656;23.382;2022-08-05T00:32:31;94985.97;;;18.39;54.96
68179;BME280;54998;42.656;23.382;2022-08-05T00:34:57;94979.91;;;18.53;55.04
68179;BME280;54998;42.656;23.382;2022-08-05T00:37:22;94988.09;;;18.50;55.49
68179;BME280;54998;42.656;23.382;2022-08-05T00:39:48;94985.56;;;18.35;56.08
68179;BME280;54998;42.656;23.382;2022-08-05T00:42:13;94990.63;;;18.22;55.86
68179;BME280;54998;42.656;23.382;2022-08-05T00:44:41;94985.47;;;18.07;56.39
68179;BME280;54998;42.656;23.382;2022-08-05T00:47:07;94979.06;;;17.88;57.26
68179;BME280;54998;42.656;23.382;2022-08-05T00:49:32;94988.44;;;17.74;56.99
68179;BME280;54998;42.656;23.382;2022-08-05T00:51:58;94988.25;;;17.76;57.39
68179;BME280;54998;42.656;23.382;2022-08-05T00:54:24;94985.13;;;17.80;57.24
68179;BME280;54998;42.656;23.382;2022-08-05T00:56:49;94986.72;;;17.81;57.10
68179;BME280;54998;42.656;23.382;2022-08-05T00:59:15;94982.44;;;17.74;57.09
68179;BME280;54998;42.656;23.382;2022-08-05T01:01:40;94981.09;;;17.63;57.21
68179;BME280;54998;42.656;23.382;2022-08-05T01:04:05;94984.16;;;17.66;57.04
68179;BME280;54998;42.656;23.382;2022-08-05T01:06:31;94991.59;;;17.70;56.69
68179;BME280;54998;42.656;23.382;2022-08-05T01:08:56;94984.41;;;17.72;56.75
68179;BME280;54998;42.656;23.382;2022-08-05T01:11:26;94987.91;;;17.64;56.73
68179;BME280;54998;42.656;23.382;2022-08-05T01:14:08;94982.66;;;17.57;57.05
68179;BME280;54998;42.656;23.382;2022-08-05T01:16:42;94990.16;;;17.52;57.35
68179;BME280;54998;42.656;23.382;2022-08-05T01:22:09;94993.47;;;17.31;57.85
68179;BME280;54998;42.656;23.382;2022-08-05T01:30:04;94986.66;;;17.00;59.29
68179;BME280;54998;42.656;23.382;2022-08-05T01:32:32;94979.28;;;16.89;59.54
68179;BME280;54998;42.656;23.382;2022-08-05T01:35:03;94991.25;;;16.90;59.74
68179;BME280;54998;42.656;23.382;2022-08-05T01:37:50;94997.31;;;16.82;60.49
68179;BME280;54998;42.656;23.382;2022-08-05T01:40:17;94986.94;;;16.82;60.23
68179;BME280;54998;42.656;23.382;2022-08-05T01:42:45;94991.97;;;16.84;60.33
68179;BME280;54998;42.656;23.382;2022-08-05T01:45:13;94988.13;;;16.72;60.76
68179;BME280;54998;42.656;23.382;2022-08-05T01:47:40;94991.34;;;16.74;61.06
68179;BME280;54998;42.656;23.382;2022-08-05T01:50:10;94988.44;;;16.77;60.73
68179;BME280;54998;42.656;23.382;2022-08-05T01:52:37;94990.81;;;16.87;60.43
68179;BME280;54998;42.656;23.382;2022-08-05T01:55:08;94988.56;;;16.83;60.69
68179;BME280;54998;42.656;23.382;2022-08-05T01:57:41;94988.31;;;16.93;60.45
68179;BME280;54998;42.656;23.382;2022-08-05T02:00:08;94994.31;;;16.94;60.42
68179;BME280;54998;42.656;23.382;2022-08-05T02:02:38;94994.81;;;16.89;60.51
68179;BME280;54998;42.656;23.382;2022-08-05T02:05:08;94990.47;;;16.90;60.63
68179;BME280;54998;42.656;23.382;2022-08-05T02:07:36;94986.47;;;16.79;61.00
68179;BME280;54998;42.656;23.382;2022-08-05T02:10:04;94994.25;;;16.79;60.83
68179;BME280;54998;42.656;23.382;2022-08-05T02:15:14;94992.09;;;16.68;61.26
68179;BME280;54998;42.656;23.382;2022-08-05T02:17:51;94992.69;;;16.70;61.10
68179;BME280;54998;42.656;23.382;2022-08-05T02:20:29;94982.50;;;16.68;61.27
68179;BME280;54998;42.656;23.382;2022-08-05T02:22:58;94988.13;;;16.72;60.82
68179;BME280;54998;42.656;23.382;2022-08-05T02:25:28;94989.41;;;16.76;60.95
68179;BME280;54998;42.656;23.382;2022-08-05T02:27:56;94981.34;;;16.71;60.65
68179;BME280;54998;42.656;23.382;2022-08-05T02:30:24;94981.09;;;16.66;60.88
68179;BME280;54998;42.656;23.382;2022-08-05T02:32:54;94985.09;;;16.68;61.10
68179;BME280;54998;42.656;23.382;2022-08-05T02:35:23;94975.81;;;16.74;60.97
68179;BME280;54998;42.656;23.382;2022-08-05T02:37:52;94984.56;;;16.73;60.54
68179;BME280;54998;42.656;23.382;2022-08-05T02:40:20;94979.41;;;16.73;60.86
68179;BME280;54998;42.656;23.382;2022-08-05T02:42:46;94976.81;;;16.73;60.68
68179;BME280;54998;42.656;23.382;2022-08-05T02:45:13;94981.00;;;16.74;60.66
68179;BME280;54998;42.656;23.382;2022-08-05T02:47:40;94980.38;;;16.72;60.81
68179;BME280;54998;42.656;23.382;2022-08-05T02:50:07;94986.38;;;16.72;60.87
68179;BME280;54998;42.656;23.382;2022-08-05T02:52:34;94984.75;;;16.71;60.77
68179;BME280;54998;42.656;23.382;2022-08-05T02:55:00;94984.63;;;16.64;60.88
68179;BME280;54998;42.656;23.382;2022-08-05T02:57:26;94989.03;;;16.64;61.27
68179;BME280;54998;42.656;23.382;2022-08-05T02:59:53;94978.81;;;16.62;60.99
68179;BME280;54998;42.656;23.382;2022-08-05T03:02:23;94980.25;;;16.65;61.80
68179;BME280;54998;42.656;23.382;2022-08-05T03:04:53;94981.56;;;16.61;61.50
68179;BME280;54998;42.656;23.382;2022-08-05T03:07:20;94987.28;;;16.56;61.66
68179;BME280;54998;42.656;23.382;2022-08-05T03:09:46;94979.06;;;16.53;61.42
68179;BME280;54998;42.656;23.382;2022-08-05T03:12:31;94979.25;;;16.51;61.36
68179;BME280;54998;42.656;23.382;2022-08-05T03:14:57;94979.59;;;16.48;60.62
68179;BME280;54998;42.656;23.382;2022-08-05T03:17:23;94988.69;;;16.44;60.44
68179;BME280;54998;42.656;23.382;2022-08-05T03:19:48;94991.59;;;16.41;59.90
68179;BME280;54998;42.656;23.382;2022-08-05T03:22:14;94987.69;;;16.45;60.16
68179;BME280;54998;42.656;23.382;2022-08-05T03:24:41;94987.38;;;16.48;59.91
68179;BME280;54998;42.656;23.382;2022-08-05T03:27:07;94989.31;;;16.46;59.92
68179;BME280;54998;42.656;23.382;2022-08-05T03:29:32;94988.97;;;16.49;59.78
68179;BME280;54998;42.656;23.382;2022-08-05T03:31:58;94984.63;;;16.41;60.13
68179;BME280;54998;42.656;23.382;2022-08-05T03:34:26;94985.75;;;16.47;60.03
68179;BME280;54998;42.656;23.382;2022-08-05T03:36:52;94985.38;;;16.50;59.99
68179;BME280;54998;42.656;23.382;2022-08-05T03:39:18;94985.06;;;16.53;59.88
68179;BME280;54998;42.656;23.382;2022-08-05T03:41:43;94987.00;;;16.51;59.87
68179;BME280;54998;42.656;23.382;2022-08-05T03:44:08;94988.97;;;16.49;60.31
68179;BME280;54998;42.656;23.382;2022-08-05T03:46:35;94990.41;;;16.52;60.36
68179;BME280;54998;42.656;23.382;2022-08-05T03:49:00;94988.59;;;16.52;60.31
68179;BME280;54998;42.656;23.382;2022-08-05T03:51:29;94992.31;;;16.58;60.59
68179;BME280;54998;42.656;23.382;2022-08-05T03:54:02;94996.97;;;16.62;60.43
68179;BME280;54998;42.656;23.382;2022-08-05T03:56:44;94987.22;;;16.64;60.36
68179;BME280;54998;42.656;23.382;2022-08-05T03:59:15;94998.00;;;16.76;60.32
68179;BME280;54998;42.656;23.382;2022-08-05T04:01:45;94993.69;;;16.92;59.87
68179;BME280;54998;42.656;23.382;2022-08-05T04:04:12;94997.34;;;16.97;59.96
68179;BME280;54998;42.656;23.382;2022-08-05T04:06:39;94994.75;;;16.97;60.32
68179;BME280;54998;42.656;23.382;2022-08-05T04:09:06;94991.38;;;16.97;59.93
68179;BME280;54998;42.656;23.382;2022-08-05T04:11:36;94994.13;;;16.95;59.97
68179;BME280;54998;42.656;23.382;2022-08-05T04:14:02;94991.03;;;16.77;60.92
68179;BME280;54998;42.656;23.382;2022-08-05T04:16:28;94989.75;;;16.73;61.00
68179;BME280;54998;42.656;23.382;2022-08-05T04:18:55;94988.13;;;16.72;60.87
68179;BME280;54998;42.656;23.382;2022-08-05T04:21:21;94991.09;;;16.69;61.14
68179;BME280;54998;42.656;23.382;2022-08-05T04:26:20;94988.03;;;16.88;60.63
68179;BME280;54998;42.656;23.382;2022-08-05T04:28:46;94991.19;;;16.98;59.98
68179;BME280;54998;42.656;23.382;2022-08-05T04:31:11;94997.34;;;16.97;60.17
68179;BME280;54998;42.656;23.382;2022-08-05T04:33:37;94990.56;;;16.96;60.33
68179;BME280;54998;42.656;23.382;2022-08-05T04:36:02;94992.88;;;16.68;61.07
68179;BME280;54998;42.656;23.382;2022-08-05T04:38:28;94991.03;;;16.77;60.70
68179;BME280;54998;42.656;23.382;2022-08-05T04:40:53;94988.91;;;16.80;60.69
68179;BME280;54998;42.656;23.382;2022-08-05T04:43:19;94993.84;;;16.90;60.88
68179;BME280;54998;42.656;23.382;2022-08-05T04:45:44;94986.78;;;16.84;61.40
68179;BME280;54998;42.656;23.382;2022-08-05T04:48:12;94988.00;;;17.11;60.84
68179;BME280;54998;42.656;23.382;2022-08-05T04:50:40;94998.09;;;17.21;60.27
68179;BME280;54998;42.656;23.382;2022-08-05T04:53:06;94991.13;;;17.36;59.76
68179;BME280;54998;42.656;23.382;2022-08-05T04:55:32;94991.31;;;17.50;59.27
68179;BME280;54998;42.656;23.382;2022-08-05T05:00:34;94992.03;;;17.43;59.16
68179;BME280;54998;42.656;23.382;2022-08-05T05:03:00;94990.59;;;17.56;59.30
68179;BME280;54998;42.656;23.382;2022-08-05T05:05:26;94992.84;;;17.44;59.84
68179;BME280;54998;42.656;23.382;2022-08-05T05:07:53;94989.88;;;17.62;59.76
68179;BME280;54998;42.656;23.382;2022-08-05T05:10:19;94991.28;;;17.79;58.95
68179;BME280;54998;42.656;23.382;2022-08-05T05:12:45;94981.16;;;17.99;58.33
68179;BME280;54998;42.656;23.382;2022-08-05T05:15:10;94980.84;;;17.88;58.61
68179;BME280;54998;42.656;23.382;2022-08-05T05:17:39;94983.03;;;18.05;58.48
68179;BME280;54998;42.656;23.382;2022-08-05T05:20:07;94989.03;;;18.06;58.69
68179;BME280;54998;42.656;23.382;2022-08-05T05:22:33;94991.66;;;18.27;58.18
68179;BME280;54998;42.656;23.382;2022-08-05T05:24:59;94986.25;;;18.44;57.59
68179;BME280;54998;42.656;23.382;2022-08-05T05:30:00;94977.09;;;18.70;57.36
68179;BME280;54998;42.656;23.382;2022-08-05T05:32:25;94986.00;;;18.82;56.99
68179;BME280;54998;42.656;23.382;2022-08-05T05:34:51;94986.53;;;18.99;56.44
68179;BME280;54998;42.656;23.382;2022-08-05T05:37:16;94979.81;;;19.11;56.76
68179;BME280;54998;42.656;23.382;2022-08-05T05:39:42;94980.81;;;20.48;53.72
68179;BME280;54998;42.656;23.382;2022-08-05T05:42:07;94977.28;;;23.21;46.79
68179;BME280;54998;42.656;23.382;2022-08-05T05:44:33;94981.91;;;25.61;41.08
68179;BME280;54998;42.656;23.382;2022-08-05T05:46:59;94976.81;;;26.64;38.23
68179;BME280;54998;42.656;23.382;2022-08-05T05:49:24;94984.19;;;26.50;37.45
68179;BME280;54998;42.656;23.382;2022-08-05T05:51:50;94979.22;;;26.66;37.26
68179;BME280;54998;42.656;23.382;2022-08-05T05:54:16;94978.28;;;28.00;35.14
68179;BME280;54998;42.656;23.382;2022-08-05T05:59:16;94974.78;;;29.78;32.29
68179;BME280;54998;42.656;23.382;2022-08-05T06:01:42;94983.22;;;29.00;33.42
68179;BME280;54998;42.656;23.382;2022-08-05T06:04:12;94980.84;;;30.73;30.56
68179;BME280;54998;42.656;23.382;2022-08-05T06:06:39;94981.41;;;31.36;29.33
68179;BME280;54998;42.656;23.382;2022-08-05T06:09:05;94979.06;;;32.15;28.07
68179;BME280;54998;42.656;23.382;2022-08-05T06:11:31;94977.81;;;33.26;26.84
68179;BME280;54998;42.656;23.382;2022-08-05T06:13:57;94972.25;;;32.48;27.23
68179;BME280;54998;42.656;23.382;2022-08-05T06:16:22;94979.09;;;32.65;27.09
68179;BME280;54998;42.656;23.382;2022-08-05T06:18:48;94984.50;;;34.63;24.67
68179;BME280;54998;42.656;23.382;2022-08-05T06:21:13;94975.66;;;35.66;23.52
68179;BME280;54998;42.656;23.382;2022-08-05T06:23:39;94973.13;;;36.75;22.82
68179;BME280;54998;42.656;23.382;2022-08-05T06:26:04;94980.25;;;36.79;22.40
68179;BME280;54998;42.656;23.382;2022-08-05T06:28:29;94968.69;;;37.87;21.27
68179;BME280;54998;42.656;23.382;2022-08-05T06:30:55;94975.75;;;35.88;22.93
68179;BME280;54998;42.656;23.382;2022-08-05T06:33:20;94972.78;;;36.54;22.53
68179;BME280;54998;42.656;23.382;2022-08-05T06:35:46;94971.97;;;36.90;21.46
68179;BME280;54998;42.656;23.382;2022-08-05T06:38:11;94966.06;;;35.78;22.76
68179;BME280;54998;42.656;23.382;2022-08-05T06:40:37;94975.19;;;37.23;21.09
68179;BME280;54998;42.656;23.382;2022-08-05T06:43:02;94968.38;;;38.89;19.68
68179;BME280;54998;42.656;23.382;2022-08-05T06:45:28;94971.38;;;34.47;24.92
68179;BME280;54998;42.656;23.382;2022-08-05T06:47:53;94966.78;;;37.70;21.09
68179;BME280;54998;42.656;23.382;2022-08-05T06:50:19;94964.22;;;37.65;20.83
68179;BME280;54998;42.656;23.382;2022-08-05T06:52:44;94964.94;;;38.89;19.85
68179;BME280;54998;42.656;23.382;2022-08-05T06:55:09;94965.72;;;38.89;19.77
68179;BME280;54998;42.656;23.382;2022-08-05T06:57:35;94964.47;;;37.46;20.14
68179;BME280;54998;42.656;23.382;2022-08-05T07:00:00;94966.34;;;37.14;20.97
68179;BME280;54998;42.656;23.382;2022-08-05T07:02:27;94959.16;;;36.78;21.50
68179;BME280;54998;42.656;23.382;2022-08-05T07:04:54;94964.25;;;36.02;22.45
68179;BME280;54998;42.656;23.382;2022-08-05T07:07:19;94958.63;;;37.44;21.03
68179;BME280;54998;42.656;23.382;2022-08-05T07:09:45;94962.72;;;38.56;20.38
68179;BME280;54998;42.656;23.382;2022-08-05T07:12:10;94967.44;;;38.94;18.94
68179;BME280;54998;42.656;23.382;2022-08-05T07:14:55;94962.88;;;37.76;20.40
68179;BME280;54998;42.656;23.382;2022-08-05T07:17:41;94961.44;;;39.06;19.57
68179;BME280;54998;42.656;23.382;2022-08-05T07:20:07;94961.78;;;38.95;19.01
68179;BME280;54998;42.656;23.382;2022-08-05T07:22:32;94969.41;;;39.79;18.32
68179;BME280;54998;42.656;23.382;2022-08-05T07:24:59;94963.72;;;40.19;18.11
68179;BME280;54998;42.656;23.382;2022-08-05T07:27:24;94966.31;;;39.68;18.21
68179;BME280;54998;42.656;23.382;2022-08-05T07:29:50;94962.38;;;38.40;18.89
68179;BME280;54998;42.656;23.382;2022-08-05T07:32:15;94957.78;;;38.93;18.33
68179;BME280;54998;42.656;23.382;2022-08-05T07:34:41;94956.78;;;39.79;17.26
68179;BME280;54998;42.656;23.382;2022-08-05T07:37:06;94955.63;;;40.28;17.39
68179;BME280;54998;42.656;23.382;2022-08-05T07:39:32;94958.75;;;40.30;17.29
68179;BME280;54998;42.656;23.382;2022-08-05T07:41:58;94955.88;;;39.28;17.82
68179;BME280;54998;42.656;23.382;2022-08-05T07:44:23;94953.22;;;40.68;17.51
68179;BME280;54998;42.656;23.382;2022-08-05T07:46:49;94951.94;;;41.90;16.00
68179;BME280;54998;42.656;23.382;2022-08-05T07:49:15;94949.13;;;41.74;16.14
68179;BME280;54998;42.656;23.382;2022-08-05T07:51:41;94946.63;;;39.94;17.76
68179;BME280;54998;42.656;23.382;2022-08-05T07:54:07;94947.78;;;42.05;16.23
68179;BME280;54998;42.656;23.382;2022-08-05T07:56:33;94945.94;;;42.86;15.20
68179;BME280;54998;42.656;23.382;2022-08-05T07:58:58;94947.25;;;42.52;15.48
68179;BME280;54998;42.656;23.382;2022-08-05T08:01:24;94944.53;;;41.75;16.21
68179;BME280;54998;42.656;23.382;2022-08-05T08:03:51;94949.59;;;41.76;16.30
68179;BME280;54998;42.656;23.382;2022-08-05T08:06:17;94945.00;;;41.64;15.86
68179;BME280;54998;42.656;23.382;2022-08-05T08:08:42;94951.91;;;42.27;16.00
68179;BME280;54998;42.656;23.382;2022-08-05T08:11:08;94947.84;;;43.46;14.33
68179;BME280;54998;42.656;23.382;2022-08-05T08:13:33;94950.94;;;45.05;13.89
68179;BME280;54998;42.656;23.382;2022-08-05T08:15:59;94942.28;;;44.41;13.79
68179;BME280;54998;42.656;23.382;2022-08-05T08:18:24;94946.19;;;43.57;15.15
68179;BME280;54998;42.656;23.382;2022-08-05T08:20:49;94938.44;;;42.67;15.00
68179;BME280;54998;42.656;23.382;2022-08-05T08:23:15;94941.91;;;44.04;14.30
68179;BME280;54998;42.656;23.382;2022-08-05T08:25:42;94940.38;;;42.95;15.03
68179;BME280;54998;42.656;23.382;2022-08-05T08:28:08;94937.09;;;43.18;15.27
68179;BME280;54998;42.656;23.382;2022-08-05T08:30:33;94940.97;;;43.33;14.67
68179;BME280;54998;42.656;23.382;2022-08-05T08:32:59;94936.53;;;43.72;14.46
68179;BME280;54998;42.656;23.382;2022-08-05T08:35:24;94941.72;;;43.97;14.31
68179;BME280;54998;42.656;23.382;2022-08-05T08:37:49;94930.22;;;42.36;16.22
68179;BME280;54998;42.656;23.382;2022-08-05T08:42:46;94931.59;;;43.94;14.76
68179;BME280;54998;42.656;23.382;2022-08-05T08:45:14;94929.91;;;45.18;13.74
68179;BME280;54998;42.656;23.382;2022-08-05T08:47:40;94931.44;;;44.38;14.19
68179;BME280;54998;42.656;23.382;2022-08-05T08:50:10;94926.00;;;41.98;15.45
68179;BME280;54998;42.656;23.382;2022-08-05T08:52:36;94933.38;;;38.94;18.08
68179;BME280;54998;42.656;23.382;2022-08-05T08:55:03;94928.50;;;38.53;17.61
68179;BME280;54998;42.656;23.382;2022-08-05T08:57:28;94927.69;;;38.96;17.78
68179;BME280;54998;42.656;23.382;2022-08-05T08:59:54;94916.34;;;42.90;13.73
68179;BME280;54998;42.656;23.382;2022-08-05T09:02:22;94922.59;;;42.94;13.74
68179;BME280;54998;42.656;23.382;2022-08-05T09:04:48;94914.66;;;43.77;13.31
68179;BME280;54998;42.656;23.382;2022-08-05T09:07:13;94912.84;;;44.01;13.60
68179;BME280;54998;42.656;23.382;2022-08-05T09:09:39;94917.97;;;45.46;12.10
68179;BME280;54998;42.656;23.382;2022-08-05T09:12:08;94912.03;;;46.13;11.57
68179;BME280;54998;42.656;23.382;2022-08-05T09:17:10;94903.72;;;46.29;11.66
68179;BME280;54998;42.656;23.382;2022-08-05T09:19:39;94895.31;;;47.53;11.00
68179;BME280;54998;42.656;23.382;2022-08-05T09:22:04;94891.50;;;45.85;11.24
68179;BME280;54998;42.656;23.382;2022-08-05T09:24:30;94883.53;;;46.26;11.31
68179;BME280;54998;42.656;23.382;2022-08-05T09:26:56;94893.22;;;43.37;13.13
68179;BME280;54998;42.656;23.382;2022-08-05T09:29:42;94886.59;;;45.22;12.27
68179;BME280;54998;42.656;23.382;2022-08-05T09:32:12;94875.97;;;45.33;12.09
68179;BME280;54998;42.656;23.382;2022-08-05T09:37:20;94881.00;;;45.57;11.31
68179;BME280;54998;42.656;23.382;2022-08-05T09:39:46;94872.25;;;47.33;10.46
68179;BME280;54998;42.656;23.382;2022-08-05T09:42:17;94874.22;;;43.33;11.96
68179;BME280;54998;42.656;23.382;2022-08-05T09:44:47;94871.13;;;41.29;13.77
68179;BME280;54998;42.656;23.382;2022-08-05T09:49:50;94873.59;;;39.41;15.30
68179;BME280;54998;42.656;23.382;2022-08-05T09:57:42;94865.13;;;42.50;12.63
68179;BME280;54998;42.656;23.382;2022-08-05T10:00:16;94854.59;;;42.04;13.37
68179;BME280;54998;42.656;23.382;2022-08-05T10:02:51;94860.66;;;39.94;15.37
68179;BME280;54998;42.656;23.382;2022-08-05T10:05:22;94852.22;;;42.02;13.43
68179;BME280;54998;42.656;23.382;2022-08-05T10:07:59;94848.88;;;41.93;13.98
68179;BME280;54998;42.656;23.382;2022-08-05T10:10:30;94843.88;;;41.67;13.61
68179;BME280;54998;42.656;23.382;2022-08-05T10:12:57;94849.25;;;44.26;12.21
68179;BME280;54998;42.656;23.382;2022-08-05T10:15:28;94843.03;;;43.87;11.39
68179;BME280;54998;42.656;23.382;2022-08-05T10:18:02;94845.41;;;44.86;11.94
68179;BME280;54998;42.656;23.382;2022-08-05T10:20:30;94839.03;;;44.16;12.23
68179;BME280;54998;42.656;23.382;2022-08-05T10:22:56;94835.25;;;45.52;11.92
68179;BME280;54998;42.656;23.382;2022-08-05T10:25:22;94839.41;;;42.12;13.29
68179;BME280;54998;42.656;23.382;2022-08-05T10:27:48;94837.19;;;41.89;13.19
68179;BME280;54998;42.656;23.382;2022-08-05T10:30:14;94821.00;;;41.36;14.82
68179;BME280;54998;42.656;23.382;2022-08-05T10:32:39;94825.59;;;42.41;13.52
68179;BME280;54998;42.656;23.382;2022-08-05T10:35:05;94824.50;;;43.18;13.08
68179;BME280;54998;42.656;23.382;2022-08-05T10:37:32;94825.13;;;41.71;14.09
68179;BME280;54998;42.656;23.382;2022-08-05T10:40:00;94818.81;;;42.19;13.71
68179;BME280;54998;42.656;23.382;2022-08-05T10:42:31;94822.09;;;43.64;12.49
68179;BME280;54998;42.656;23.382;2022-08-05T10:45:01;94822.28;;;43.91;12.34
68179;BME280;54998;42.656;23.382;2022-08-05T10:47:32;94814.25;;;41.67;14.58
68179;BME280;54998;42.656;23.382;2022-08-05T10:50:18;94813.81;;;41.28;14.55
68179;BME280;54998;42.656;23.382;2022-08-05T10:52:44;94811.56;;;43.43;13.48
68179;BME280;54998;42.656;23.382;2022-08-05T10:55:16;94810.50;;;44.19;13.22
68179;BME280;54998;42.656;23.382;2022-08-05T10:57:43;94800.81;;;42.08;13.95
68179;BME280;54998;42.656;23.382;2022-08-05T11:00:17;94809.16;;;39.02;16.26
68179;BME280;54998;42.656;23.382;2022-08-05T11:03:15;94803.34;;;41.63;14.90
68179;BME280;54998;42.656;23.382;2022-08-05T11:05:40;94792.50;;;39.98;15.38
68179;BME280;54998;42.656;23.382;2022-08-05T11:08:08;94793.81;;;41.41;14.70
68179;BME280;54998;42.656;23.382;2022-08-05T11:10:36;94800.72;;;43.08;13.86
68179;BME280;54998;42.656;23.382;2022-08-05T11:13:03;94792.84;;;44.25;12.36
68179;BME280;54998;42.656;23.382;2022-08-05T11:20:46;94791.69;;;44.45;12.05
68179;BME280;54998;42.656;23.382;2022-08-05T11:23:31;94789.78;;;41.47;13.86
68179;BME280;54998;42.656;23.382;2022-08-05T11:33:37;94781.56;;;42.37;13.23
68179;BME280;54998;42.656;23.382;2022-08-05T11:36:07;94778.72;;;42.18;12.98
68179;BME280;54998;42.656;23.382;2022-08-05T11:49:13;94758.22;;;45.00;11.78
68179;BME280;54998;42.656;23.382;2022-08-05T11:51:43;94758.03;;;40.34;14.58
68179;BME280;54998;42.656;23.382;2022-08-05T11:54:19;94758.63;;;40.39;15.02
68179;BME280;54998;42.656;23.382;2022-08-05T11:56:50;94756.97;;;39.72;16.12
68179;BME280;54998;42.656;23.382;2022-08-05T11:59:24;94764.38;;;38.30;17.67
68179;BME280;54998;42.656;23.382;2022-08-05T12:01:55;94757.94;;;39.16;16.82
68179;BME280;54998;42.656;23.382;2022-08-05T12:04:21;94753.03;;;40.11;15.61
68179;BME280;54998;42.656;23.382;2022-08-05T12:06:47;94759.22;;;39.91;15.46
68179;BME280;54998;42.656;23.382;2022-08-05T12:09:16;94744.53;;;39.67;16.43
68179;BME280;54998;42.656;23.382;2022-08-05T12:11:42;94740.72;;;39.47;16.46
68179;BME280;54998;42.656;23.382;2022-08-05T12:14:09;94750.34;;;39.18;15.72
68179;BME280;54998;42.656;23.382;2022-08-05T12:16:37;94745.03;;;37.72;17.62
68179;BME280;54998;42.656;23.382;2022-08-05T12:19:04;94752.88;;;37.02;17.58
68179;BME280;54998;42.656;23.382;2022-08-05T12:24:19;94753.41;;;35.60;18.56
68179;BME280;54998;42.656;23.382;2022-08-05T12:26:49;94751.75;;;34.53;19.14
68179;BME280;54998;42.656;23.382;2022-08-05T12:29:25;94749.94;;;34.35;19.96
68179;BME280;54998;42.656;23.382;2022-08-05T12:31:55;94753.81;;;34.29;19.87
68179;BME280;54998;42.656;23.382;2022-08-05T12:34:22;94745.56;;;33.54;20.87
68179;BME280;54998;42.656;23.382;2022-08-05T12:36:53;94738.78;;;34.00;20.95
68179;BME280;54998;42.656;23.382;2022-08-05T12:39:20;94740.66;;;34.00;20.54
68179;BME280;54998;42.656;23.382;2022-08-05T12:41:45;94738.19;;;33.70;20.60
68179;BME280;54998;42.656;23.382;2022-08-05T12:44:13;94732.47;;;33.58;21.16
68179;BME280;54998;42.656;23.382;2022-08-05T12:46:40;94722.94;;;34.09;20.57
68179;BME280;54998;42.656;23.382;2022-08-05T12:54:45;94723.59;;;34.66;22.16
68179;BME280;54998;42.656;23.382;2022-08-05T12:57:13;94706.09;;;34.13;21.58
68179;BME280;54998;42.656;23.382;2022-08-05T12:59:46;94717.88;;;33.37;22.55
68179;BME280;54998;42.656;23.382;2022-08-05T13:02:14;94717.44;;;32.62;23.30
68179;BME280;54998;42.656;23.382;2022-08-05T13:04:42;94711.34;;;32.32;24.03
68179;BME280;54998;42.656;23.382;2022-08-05T13:07:14;94714.78;;;32.04;23.99
68179;BME280;54998;42.656;23.382;2022-08-05T13:09:49;94712.31;;;32.42;23.70
68179;BME280;54998;42.656;23.382;2022-08-05T13:12:16;94707.31;;;32.64;23.92
68179;BME280;54998;42.656;23.382;2022-08-05T13:14:48;94706.25;;;32.65;23.71
68179;BME280;54998;42.656;23.382;2022-08-05T13:20:16;94696.34;;;31.83;25.79
68179;BME280;54998;42.656;23.382;2022-08-05T13:22:50;94700.50;;;32.00;25.63
68179;BME280;54998;42.656;23.382;2022-08-05T13:25:17;94702.09;;;31.96;24.51
68179;BME280;54998;42.656;23.382;2022-08-05T13:27:54;94697.84;;;32.00;24.23
68179;BME280;54998;42.656;23.382;2022-08-05T13:30:22;94705.28;;;32.27;25.19
68179;BME280;54998;42.656;23.382;2022-08-05T13:35:20;94694.38;;;32.58;23.05
68179;BME280;54998;42.656;23.382;2022-08-05T13:37:46;94696.22;;;32.81;23.40
68179;BME280;54998;42.656;23.382;2022-08-05T13:40:13;94687.53;;;32.76;23.81
68179;BME280;54998;42.656;23.382;2022-08-05T13:42:38;94690.84;;;32.86;22.51
68179;BME280;54998;42.656;23.382;2022-08-05T13:45:04;94683.81;;;32.52;22.86
68179;BME280;54998;42.656;23.382;2022-08-05T13:47:30;94688.53;;;32.02;23.21
68179;BME280;54998;42.656;23.382;2022-08-05T13:49:55;94691.19;;;32.02;23.58
68179;BME280;54998;42.656;23.382;2022-08-05T13:52:23;94690.44;;;32.26;22.96
68179;BME280;54998;42.656;23.382;2022-08-05T13:54:54;94691.41;;;32.35;22.26
68179;BME280;54998;42.656;23.382;2022-08-05T13:57:20;94686.03;;;32.40;22.63
68179;BME280;54998;42.656;23.382;2022-08-05T13:59:46;94685.06;;;32.31;22.76
68179;BME280;54998;42.656;23.382;2022-08-05T14:02:12;94680.19;;;32.14;22.91
68179;BME280;54998;42.656;23.382;2022-08-05T14:04:40;94688.75;;;32.06;22.86
68179;BME280;54998;42.656;23.382;2022-08-05T14:07:33;94680.72;;;31.82;23.91